Time;durP1;ratioP1;P1;durP2;ratioP2;P2;SDS_P1;SDS_P2;PMS_P1;PMS_P2;Temp;Humidity;BMP_temperature;BMP_pressure;BME280_temperature;BME280_humidity;BME280_pressure;Samples;Min_cycle;Max_cycle;Signal;HPM_P1;HPM_P2
2021/09/03 00:00:53;;;;;;;6.03;3.50;;;21.50;64.90;;;;;;20908570;28;20049;-50
2021/09/03 00:10:55;;;;;;;6.17;3.50;;;21.30;65.60;;;;;;20906345;28;20500;-50
2021/09/03 00:20:57;;;;;;;3.73;2.97;;;21.10;66.70;;;;;;20906776;28;20085;-50
2021/09/03 00:30:58;;;;;;;4.65;3.45;;;21.10;66.80;;;;;;20906649;28;20132;-49
2021/09/03 00:41:00;;;;;;;5.30;3.03;;;21.00;67.30;;;;;;20905329;28;20074;-50
2021/09/03 00:51:04;;;;;;;5.07;3.90;;;20.90;67.60;;;;;;20905071;28;20478;-50
2021/09/03 01:01:11;;;;;;;6.93;4.47;;;20.90;67.60;;;;;;20904038;28;20057;-49
2021/09/03 01:11:14;;;;;;;;;;;20.80;67.30;;;;;;20887595;28;20476;-49
2021/09/03 01:21:16;;;;;;;5.90;3.72;;;20.70;67.10;;;;;;20902692;28;19924;-49
2021/09/03 01:31:18;;;;;;;8.73;5.65;;;20.90;67.10;;;;;;20902724;28;20052;-49
2021/09/03 01:41:21;;;;;;;6.60;4.23;;;20.90;67.20;;;;;;20902167;28;20053;-49
2021/09/03 01:51:37;;;;;;;7.45;4.60;;;20.90;67.30;;;;;;20900863;28;20055;-50
2021/09/03 02:01:45;;;;;;;4.82;3.13;;;20.90;67.10;;;;;;20900685;28;20049;-50
2021/09/03 02:11:55;;;;;;;5.68;3.05;;;20.80;68.00;;;;;;20899968;28;20481;-50
2021/09/03 02:21:59;;;;;;;4.35;3.33;;;20.50;69.00;;;;;;20900182;28;20057;-50
2021/09/03 02:32:04;;;;;;;4.07;2.72;;;20.40;69.70;;;;;;20899343;28;20492;-50
2021/09/03 02:42:15;;;;;;;3.28;2.70;;;20.50;69.40;;;;;;20912495;28;20053;-50
2021/09/03 02:52:18;;;;;;;5.63;3.03;;;20.40;70.00;;;;;;20895289;28;20056;-51
2021/09/03 03:02:27;;;;;;;4.38;3.17;;;20.30;70.40;;;;;;20911832;28;20089;-53
2021/09/03 03:12:40;;;;;;;;;;;20.30;70.70;;;;;;20911169;28;20064;-50
2021/09/03 03:23:01;;;;;;;5.28;3.13;;;20.10;70.90;;;;;;20911590;28;20360;-49
2021/09/03 03:33:23;;;;;;;5.45;3.15;;;20.50;70.30;;;;;;20911192;28;20508;-50
2021/09/03 03:43:44;;;;;;;5.32;3.30;;;20.10;71.20;;;;;;20909391;28;20045;-49
2021/09/03 03:54:05;;;;;;;5.97;3.33;;;20.10;71.10;;;;;;20909439;28;20044;-52
2021/09/03 04:04:26;;;;;;;5.03;3.20;;;20.20;70.90;;;;;;20893534;28;20049;-49
2021/09/03 04:14:47;;;;;;;5.47;3.17;;;20.10;71.70;;;;;;20906874;28;20060;-51
2021/09/03 04:25:09;;;;;;;5.40;3.08;;;20.10;71.80;;;;;;20906809;28;20051;-50
2021/09/03 04:35:31;;;;;;;5.78;3.25;;;20.40;70.80;;;;;;20905556;28;20053;-50
2021/09/03 04:45:52;;;;;;;4.63;3.00;;;20.70;69.20;;;;;;20905354;28;20074;-49
2021/09/03 04:56:13;;;;;;;6.63;3.58;;;20.40;70.30;;;;;;20903586;28;20049;-49
2021/09/03 05:06:34;;;;;;;5.40;3.25;;;;;;;;;;20902276;28;20102;-48
2021/09/03 05:16:54;;;;;;;5.25;3.58;;;21.10;67.50;;;;;;20902702;28;20072;-49
2021/09/03 05:27:07;;;;;;;4.93;3.58;;;20.10;71.00;;;;;;20901694;28;20485;-49
2021/09/03 05:37:28;;;;;;;8.18;3.90;;;19.90;71.40;;;;;;20902823;28;20048;-49
2021/09/03 05:47:49;;;;;;;5.78;3.53;;;19.80;71.40;;;;;;20901363;28;20585;-49
2021/09/03 05:58:10;;;;;;;5.90;4.40;;;19.80;71.20;;;;;;20886794;28;20056;-48
2021/09/03 06:08:26;;;;;;;5.93;3.50;;;19.80;71.30;;;;;;20903060;28;20064;-49
2021/09/03 06:18:34;;;;;;;5.75;3.95;;;19.80;71.10;;;;;;20915218;28;20041;-49
2021/09/03 06:28:42;;;;;;;5.65;4.13;;;19.80;70.70;;;;;;20915200;28;20048;-48
2021/09/03 06:38:45;;;;;;;7.83;4.20;;;19.80;70.70;;;;;;20913582;28;20508;-50
2021/09/03 06:48:49;;;;;;;7.72;5.38;;;20.00;70.00;;;;;;20912893;28;20432;-49
2021/09/03 06:58:53;;;;;;;7.50;4.47;;;20.10;69.80;;;;;;20893882;28;20037;-50
2021/09/03 07:08:57;;;;;;;10.30;5.20;;;20.40;68.30;;;;;;20910707;28;20513;-51
2021/09/03 07:19:03;;;;;;;7.97;5.10;;;20.90;66.20;;;;;;20910685;28;20049;-50
2021/09/03 07:29:05;;;;;;;9.23;5.72;;;21.20;65.10;;;;;;20909691;28;20139;-50
2021/09/03 07:39:17;;;;;;;15.55;5.35;;;21.40;63.90;;;;;;20908771;28;20045;-49
2021/09/03 07:49:19;;;;;;;10.23;5.53;;;21.70;63.20;;;;;;20909249;28;20052;-51
2021/09/03 07:59:22;;;;;;;10.03;5.37;;;21.90;63.30;;;;;;20907705;28;20052;-52
2021/09/03 08:09:24;;;;;;;8.93;5.80;;;22.20;61.60;;;;;;20906684;28;20056;-49
2021/09/03 08:19:26;;;;;;;8.83;6.37;;;22.60;60.40;;;;;;20888862;28;20101;-50
2021/09/03 08:29:31;;;;;;;8.55;4.85;;;23.10;58.60;;;;;;20905639;28;20758;-51
2021/09/03 08:39:34;;;;;;;7.22;4.32;;;23.60;56.90;;;;;;20904486;28;20045;-51
2021/09/03 08:49:37;;;;;;;3.20;2.38;;;24.00;55.10;;;;;;20902998;28;20057;-44
2021/09/03 08:59:40;;;;;;;4.18;2.90;;;24.90;53.90;;;;;;20902348;28;20041;-50
2021/09/03 09:09:47;;;;;;;7.97;3.80;;;25.60;52.10;;;;;;20901906;28;20057;-49
2021/09/03 09:19:48;;;;;;;7.47;3.28;;;26.00;51.40;;;;;;20902724;28;20049;-48
2021/09/03 09:29:51;;;;;;;8.65;3.28;;;26.00;51.10;;;;;;20901702;28;20439;-48
2021/09/03 09:39:57;;;;;;;6.45;3.28;;;26.20;50.50;;;;;;20900968;28;20045;-47
2021/09/03 09:50:30;;;;;;;8.32;3.70;;;26.30;50.10;;;;;;20900521;28;20438;-47
2021/09/03 10:00:35;;;;;;;8.80;3.40;;;26.40;49.40;;;;;;20899088;28;20049;-47
2021/09/03 10:10:38;;;;;;;9.60;3.60;;;26.50;49.60;;;;;;20898763;28;20173;-47
2021/09/03 10:20:45;;;;;;;8.48;3.63;;;26.60;48.90;;;;;;20899444;28;20095;-51
2021/09/03 10:31:07;;;;;;;7.40;4.22;;;26.70;48.60;;;;;;20898537;28;20064;-50
2021/09/03 10:41:29;;;;;;;9.93;7.20;;;26.90;47.60;;;;;;20897225;28;20053;-48
2021/09/03 10:51:36;;;;;;;10.10;5.55;;;26.70;47.80;;;;;;20816715;28;20461;-48
2021/09/03 11:01:38;;;;;;;5.47;4.65;;;27.10;47.50;;;;;;20825038;28;20061;-48
2021/09/03 11:11:41;;;;;;;6.30;3.85;;;27.20;47.00;;;;;;20827265;28;20058;-49
2021/09/03 11:21:50;;;;;;;7.38;3.88;;;27.30;45.30;;;;;;20827465;28;20054;-52
2021/09/03 11:31:59;;;;;;;5.78;3.70;;;27.40;45.70;;;;;;20826780;28;20050;-53
2021/09/03 11:42:05;;;;;;;8.23;5.18;;;27.30;44.00;;;;;;20825875;28;20507;-49
2021/09/03 11:52:07;;;;;;;5.07;3.40;;;27.50;43.70;;;;;;20825135;28;20124;-55
2021/09/03 12:02:13;;;;;;;4.07;3.50;;;27.80;42.20;;;;;;20823744;28;20053;-51
2021/09/03 12:12:23;;;;;;;5.15;3.47;;;27.90;42.20;;;;;;20823081;28;20178;-51
2021/09/03 12:22:25;;;;;;;6.35;3.35;;;28.10;41.60;;;;;;20823056;28;20490;-50
2021/09/03 12:32:27;;;;;;;4.15;2.97;;;28.10;41.60;;;;;;20822678;28;20482;-50
2021/09/03 12:42:39;;;;;;;5.38;2.90;;;28.20;40.00;;;;;;20822347;28;20056;-50
2021/09/03 12:52:40;;;;;;;4.22;2.65;;;28.60;37.90;;;;;;20820716;28;20085;-50
2021/09/03 13:02:44;;;;;;;8.55;6.65;;;28.60;38.00;;;;;;20820808;28;20049;-51
2021/09/03 13:12:46;;;;;;;10.02;8.05;;;28.70;38.00;;;;;;20819504;28;20089;-49
2021/09/03 13:22:48;;;;;;;4.85;3.80;;;28.70;37.70;;;;;;20818245;28;20075;-50
2021/09/03 13:32:50;;;;;;;3.53;2.88;;;28.90;37.10;;;;;;20818764;28;20047;-51
2021/09/03 13:42:52;;;;;;;3.70;2.60;;;28.90;37.00;;;;;;20817569;28;20049;-51
2021/09/03 13:52:56;;;;;;;3.95;3.20;;;29.10;36.70;;;;;;20817905;28;20046;-50
2021/09/03 14:02:59;;;;;;;4.80;3.65;;;29.20;35.90;;;;;;20817031;28;20399;-50
2021/09/03 14:13:00;;;;;;;5.10;3.85;;;29.20;36.50;;;;;;20816509;28;20064;-49
2021/09/03 14:23:03;;;;;;;3.83;2.70;;;29.20;35.80;;;;;;20816616;28;20079;-49
2021/09/03 14:33:05;;;;;;;3.42;2.70;;;29.50;34.80;;;;;;20822415;28;20069;-54
2021/09/03 14:43:09;;;;;;;3.65;2.88;;;29.50;35.20;;;;;;20828981;28;20448;-53
2021/09/03 14:53:13;;;;;;;3.78;2.63;;;29.60;34.50;;;;;;20828412;28;20046;-54
2021/09/03 15:03:14;;;;;;;4.35;3.38;;;29.60;33.70;;;;;;20827551;28;20386;-51
2021/09/03 15:13:16;;;;;;;6.63;5.38;;;29.50;35.00;;;;;;20826104;28;20059;-49
2021/09/03 15:23:18;;;;;;;4.72;2.35;;;29.60;34.30;;;;;;20829988;27;20053;-49
2021/09/03 15:33:22;;;;;;;4.35;2.60;;;29.90;33.80;;;;;;20802108;28;20057;-45
2021/09/03 15:43:24;;;;;;;2.70;2.50;;;29.90;32.90;;;;;;20816773;28;20477;-51
2021/09/03 15:53:26;;;;;;;4.78;3.80;;;29.70;33.40;;;;;;20822695;28;20049;-48
2021/09/03 16:03:29;;;;;;;3.28;2.60;;;29.50;33.40;;;;;;20822668;28;20053;-47
2021/09/03 16:13:31;;;;;;;3.10;2.42;;;29.30;33.30;;;;;;20823511;28;20050;-50
2021/09/03 16:23:33;;;;;;;3.20;2.78;;;29.50;32.80;;;;;;20822646;28;20076;-52
2021/09/03 16:33:35;;;;;;;3.72;3.10;;;29.40;32.50;;;;;;20822994;28;20047;-50
2021/09/03 16:43:37;;;;;;;8.60;2.90;;;29.50;32.60;;;;;;20821557;28;20056;-52
2021/09/03 16:53:38;;;;;;;5.30;3.35;;;29.40;32.70;;;;;;20820360;28;20490;-57
2021/09/03 17:03:40;;;;;;;3.20;2.78;;;29.40;32.60;;;;;;20820415;28;20054;-49
2021/09/03 17:13:45;;;;;;;4.22;3.03;;;29.50;32.10;;;;;;20818928;28;20106;-50
2021/09/03 17:23:47;;;;;;;3.15;2.72;;;29.20;33.10;;;;;;20819396;28;20073;-49
2021/09/03 17:33:50;;;;;;;3.10;2.60;;;29.20;33.10;;;;;;20819338;28;20080;-50
2021/09/03 17:43:55;;;;;;;4.93;3.60;;;28.90;33.00;;;;;;20818638;28;20194;-49
2021/09/03 17:53:57;;;;;;;6.10;3.30;;;28.70;33.70;;;;;;20817592;28;20504;-50
2021/09/03 18:03:59;;;;;;;5.70;3.30;;;28.60;33.60;;;;;;20818221;28;20056;-51
2021/09/03 18:14:02;;;;;;;6.60;3.78;;;28.30;34.40;;;;;;20830942;28;20136;-54
2021/09/03 18:24:04;;;;;;;5.60;3.75;;;28.60;34.30;;;;;;20829612;28;20061;-50
2021/09/03 18:34:06;;;;;;;4.05;3.53;;;28.70;34.70;;;;;;20829707;28;20049;-49
2021/09/03 18:44:09;;;;;;;6.20;4.70;;;28.60;35.00;;;;;;20896929;28;20054;-50
2021/09/03 18:54:10;;;;;;;5.03;3.55;;;28.60;34.40;;;;;;20829271;28;20128;-51
2021/09/03 19:04:14;;;;;;;6.90;4.45;;;;;;;;;;20896120;27;20098;-50
2021/09/03 19:14:16;;;;;;;5.82;4.00;;;28.60;34.60;;;;;;20895590;28;20132;-51
2021/09/03 19:24:18;;;;;;;8.38;5.88;;;27.40;36.90;;;;;;20826879;28;20059;-51
2021/09/03 19:34:20;;;;;;;6.30;5.70;;;27.20;37.80;;;;;;20893828;28;20502;-56
2021/09/03 19:44:23;;;;;;;8.23;5.65;;;27.10;38.00;;;;;;20825994;28;20057;-52
2021/09/03 19:54:25;;;;;;;7.25;5.10;;;26.90;38.20;;;;;;20824752;28;20050;-50
2021/09/03 20:04:27;;;;;;;9.35;5.28;;;26.90;38.80;;;;;;20824243;28;20054;-51
2021/09/03 20:14:29;;;;;;;11.38;7.05;;;26.70;38.70;;;;;;20823636;28;20178;-50
2021/09/03 20:24:31;;;;;;;8.35;5.95;;;26.60;38.90;;;;;;20823699;28;20088;-51
2021/09/03 20:34:33;;;;;;;12.23;7.90;;;26.50;39.80;;;;;;20822203;28;20041;-56
2021/09/03 20:44:34;;;;;;;12.07;9.52;;;26.40;39.90;;;;;;20822589;28;20049;-52
2021/09/03 20:54:36;;;;;;;12.13;8.60;;;26.20;40.70;;;;;;20821418;28;20126;-50
2021/09/03 21:04:38;;;;;;;7.90;6.68;;;26.10;40.70;;;;;;20820539;28;20045;-55
2021/09/03 21:14:40;;;;;;;;;;;26.00;40.60;;;;;;21164145;28;20105;-57
2021/09/03 21:24:42;;;;;;;8.23;6.17;;;25.80;40.80;;;;;;21164727;28;19923;-53
2021/09/03 21:34:43;;;;;;;10.88;7.07;;;25.70;41.70;;;;;;21162750;28;20044;-55
2021/09/03 21:44:45;;;;;;;12.88;9.45;;;25.60;42.70;;;;;;21164357;28;20052;-54
2021/09/03 21:54:47;;;;;;;7.25;6.47;;;25.40;44.10;;;;;;21162251;28;20109;-56
2021/09/03 22:04:49;;;;;;;19.00;13.90;;;25.20;44.00;;;;;;21162548;28;20044;-52
2021/09/03 22:14:50;;;;;;;9.00;6.10;;;25.10;44.60;;;;;;20876952;28;20439;-51
2021/09/03 22:24:52;;;;;;;8.02;6.40;;;25.10;45.90;;;;;;20816393;28;20138;-51
2021/09/03 22:34:55;;;;;;;6.93;5.10;;;24.80;48.20;;;;;;20816077;28;20089;-49
2021/09/03 22:44:57;;;;;;;8.57;5.97;;;24.60;49.90;;;;;;20815443;28;20132;-54
2021/09/03 22:55:00;;;;;;;10.02;7.07;;;24.40;51.00;;;;;;20823217;28;20077;-49
2021/09/03 23:05:02;;;;;;;7.88;5.28;;;24.20;52.10;;;;;;20828198;28;20056;-50
2021/09/03 23:15:05;;;;;;;6.93;5.82;;;24.10;52.10;;;;;;20896107;28;20060;-49
2021/09/03 23:25:07;;;;;;;9.27;6.75;;;24.00;52.40;;;;;;20826984;28;20046;-51
2021/09/03 23:35:09;;;;;;;7.15;5.45;;;23.90;52.90;;;;;;20826177;28;20410;-50
2021/09/03 23:45:11;;;;;;;9.15;7.60;;;23.80;53.40;;;;;;20825702;28;20053;-50
2021/09/03 23:55:13;;;;;;;18.45;13.95;;;23.80;53.30;;;;;;20825683;28;20050;-53
